createdAt,value
2022-12-01T00:01:12.955Z,17.25
2022-12-01T00:03:40.958Z,17.30
2022-12-01T00:06:11.909Z,17.30
2022-12-01T00:08:39.928Z,17.73
2022-12-01T00:11:09.625Z,16.98
2022-12-01T00:13:37.229Z,17.00
2022-12-01T00:16:31.218Z,18.27
2022-12-01T00:18:59.068Z,17.63
2022-12-01T00:21:27.149Z,17.23
2022-12-01T00:23:55.883Z,17.95
2022-12-01T00:26:24.128Z,18.35
2022-12-01T00:28:52.636Z,17.90
2022-12-01T00:31:20.463Z,18.60
2022-12-01T00:33:48.062Z,18.58
2022-12-01T00:36:15.596Z,17.02
2022-12-01T00:38:43.593Z,18.50
2022-12-01T00:41:11.349Z,17.95
2022-12-01T00:43:39.678Z,19.13
2022-12-01T00:46:07.945Z,18.20
2022-12-01T00:48:35.547Z,18.00
2022-12-01T00:51:03.212Z,18.40
2022-12-01T00:53:30.890Z,18.60
2022-12-01T00:55:58.517Z,18.83
2022-12-01T00:58:26.541Z,19.50
2022-12-01T01:00:59.552Z,20.40
2022-12-01T01:03:27.648Z,19.08
2022-12-01T01:05:55.266Z,19.30
2022-12-01T01:08:22.779Z,18.35
2022-12-01T01:10:50.525Z,16.67
2022-12-01T01:13:18.225Z,16.75
2022-12-01T01:15:46.104Z,17.15
2022-12-01T01:18:13.753Z,17.42
2022-12-01T01:20:41.309Z,17.27
2022-12-01T01:23:08.952Z,19.13
2022-12-01T01:25:36.580Z,19.00
2022-12-01T01:28:04.223Z,18.88
2022-12-01T01:30:31.863Z,20.23
2022-12-01T01:32:59.770Z,19.90
2022-12-01T01:35:27.410Z,20.60
2022-12-01T01:37:54.969Z,20.05
2022-12-01T01:40:22.542Z,20.00
2022-12-01T01:42:50.131Z,20.70
2022-12-01T01:45:21.325Z,19.23
2022-12-01T01:47:50.202Z,19.63
2022-12-01T01:50:19.229Z,18.00
2022-12-01T01:52:49.097Z,17.45
2022-12-01T01:55:17.051Z,17.92
2022-12-01T01:57:44.858Z,17.20
2022-12-01T02:00:18.848Z,16.40
2022-12-01T02:02:47.877Z,17.38
2022-12-01T02:05:18.647Z,16.70
2022-12-01T02:07:47.471Z,17.05
2022-12-01T02:10:22.207Z,16.77
2022-12-01T02:12:55.876Z,16.50
2022-12-01T02:15:32.965Z,16.20
2022-12-01T02:18:09.728Z,16.48
2022-12-01T02:20:37.213Z,17.83
2022-12-01T02:23:23.578Z,16.20
2022-12-01T02:25:51.172Z,17.02
2022-12-01T02:28:35.543Z,16.30
2022-12-01T02:31:24.343Z,14.57
2022-12-01T02:33:58.617Z,16.10
2022-12-01T02:36:37.750Z,16.13
2022-12-01T02:39:19.652Z,17.02
2022-12-01T02:41:51.211Z,16.50
2022-12-01T02:44:21.101Z,16.00
2022-12-01T02:46:53.512Z,15.45
2022-12-01T02:49:24.735Z,15.18
2022-12-01T02:51:53.436Z,14.82
2022-12-01T02:54:21.611Z,14.98
2022-12-01T02:56:52.576Z,13.52
2022-12-01T02:59:20.470Z,13.38
2022-12-01T03:01:57.304Z,12.88
2022-12-01T03:04:43.021Z,13.10
2022-12-01T03:07:13.268Z,12.73
2022-12-01T03:09:43.597Z,12.88
2022-12-01T03:12:14.086Z,12.43
2022-12-01T03:14:56.702Z,13.15
2022-12-01T03:17:27.966Z,13.35
2022-12-01T03:20:00.812Z,13.05
2022-12-01T03:22:36.248Z,13.70
2022-12-01T03:25:04.967Z,12.87
2022-12-01T03:27:34.690Z,13.85
2022-12-01T03:30:03.337Z,14.13
2022-12-01T03:32:37.946Z,14.95
2022-12-01T03:35:09.052Z,14.35
2022-12-01T03:37:45.860Z,14.38
2022-12-01T03:40:17.673Z,15.23
2022-12-01T03:42:50.806Z,14.05
2022-12-01T03:45:20.910Z,13.95
2022-12-01T03:47:48.585Z,14.50
2022-12-01T03:50:18.525Z,12.73
2022-12-01T03:52:58.356Z,13.80
2022-12-01T03:55:25.956Z,12.88
2022-12-01T03:58:12.258Z,12.35
2022-12-01T04:00:40.128Z,12.85
2022-12-01T04:03:08.067Z,12.40
2022-12-01T04:05:35.777Z,13.45
2022-12-01T04:08:03.469Z,12.35
2022-12-01T04:10:32.932Z,11.98
2022-12-01T04:13:00.857Z,11.68
2022-12-01T04:15:28.605Z,11.48
2022-12-01T04:17:56.130Z,11.93
2022-12-01T04:20:23.729Z,13.25
2022-12-01T04:22:51.337Z,12.35
2022-12-01T04:25:18.926Z,12.43
2022-12-01T04:27:46.647Z,12.43
2022-12-01T04:30:14.322Z,12.52
2022-12-01T04:32:42.916Z,11.95
2022-12-01T04:35:11.696Z,12.30
2022-12-01T04:37:39.463Z,12.10
2022-12-01T04:40:07.560Z,11.95
2022-12-01T04:42:35.207Z,11.18
2022-12-01T04:45:02.803Z,12.00
2022-12-01T04:47:30.357Z,11.32
2022-12-01T04:49:57.923Z,12.10
2022-12-01T04:52:27.456Z,11.88
2022-12-01T04:54:58.346Z,11.63
2022-12-01T04:57:25.893Z,12.23
2022-12-01T04:59:53.439Z,13.23
2022-12-01T05:02:21.012Z,12.73
2022-12-01T05:04:48.968Z,12.25
2022-12-01T05:07:17.967Z,12.00
2022-12-01T05:09:45.544Z,12.88
2022-12-01T05:12:13.498Z,12.05
2022-12-01T05:14:41.113Z,11.55
2022-12-01T05:17:08.685Z,11.68
2022-12-01T05:19:55.029Z,11.13
2022-12-01T05:22:36.704Z,11.27
2022-12-01T05:25:10.618Z,11.70
2022-12-01T05:27:38.519Z,10.88
2022-12-01T05:30:06.427Z,11.02
2022-12-01T05:32:33.963Z,11.50
2022-12-01T05:35:01.598Z,11.15
2022-12-01T05:37:33.240Z,10.77
2022-12-01T05:40:01.078Z,10.80
2022-12-01T05:42:28.639Z,10.40
2022-12-01T05:44:56.285Z,11.32
2022-12-01T05:47:23.871Z,10.50
2022-12-01T05:49:51.873Z,11.05
2022-12-01T05:52:19.476Z,10.68
2022-12-01T05:54:46.979Z,10.73
2022-12-01T05:57:14.534Z,9.73
2022-12-01T05:59:42.048Z,10.48
2022-12-01T06:02:09.612Z,10.57
2022-12-01T06:04:37.429Z,10.35
2022-12-01T06:07:04.974Z,10.88
2022-12-01T06:09:32.642Z,10.73
2022-12-01T06:12:00.313Z,10.32
2022-12-01T06:14:27.853Z,10.30
2022-12-01T06:16:55.508Z,10.85
2022-12-01T06:19:23.769Z,10.20
2022-12-01T06:21:51.315Z,10.02
2022-12-01T06:24:18.839Z,10.07
2022-12-01T06:26:46.396Z,10.25
2022-12-01T06:29:14.046Z,9.82
2022-12-01T06:31:41.668Z,10.38
2022-12-01T06:34:09.298Z,11.93
2022-12-01T06:36:36.921Z,11.13
2022-12-01T06:39:10.042Z,11.20
2022-12-01T06:41:38.291Z,12.70
2022-12-01T06:44:06.412Z,12.90
2022-12-01T06:46:34.006Z,12.60
2022-12-01T06:49:04.971Z,11.75
2022-12-01T06:51:34.300Z,10.45
2022-12-01T06:54:05.468Z,10.25
2022-12-01T06:56:33.530Z,10.63
2022-12-01T06:59:01.464Z,9.70
2022-12-01T07:01:29.260Z,9.93
2022-12-01T07:03:57.010Z,10.05
2022-12-01T07:06:24.529Z,11.05
2022-12-01T07:08:53.280Z,10.90
2022-12-01T07:11:20.838Z,11.20
2022-12-01T07:13:50.278Z,11.10
2022-12-01T07:16:18.036Z,10.82
2022-12-01T07:18:45.819Z,10.63
2022-12-01T07:21:14.111Z,10.93
2022-12-01T07:23:41.701Z,11.15
2022-12-01T07:26:12.393Z,11.63
2022-12-01T07:28:40.191Z,11.13
2022-12-01T07:31:12.573Z,10.52
2022-12-01T07:33:40.191Z,10.93
2022-12-01T07:36:08.426Z,11.32
2022-12-01T07:38:36.017Z,11.27
2022-12-01T07:41:04.692Z,10.23
2022-12-01T07:43:33.150Z,11.02
2022-12-01T07:46:04.609Z,10.85
2022-12-01T07:48:32.518Z,10.48
2022-12-01T07:51:00.068Z,10.77
2022-12-01T07:53:27.654Z,11.05
2022-12-01T07:55:55.236Z,10.63
2022-12-01T07:58:22.800Z,10.00
2022-12-01T08:00:50.372Z,10.68
2022-12-01T08:03:18.114Z,12.23
2022-12-01T08:05:45.672Z,11.85
2022-12-01T08:08:13.354Z,12.65
2022-12-01T08:10:41.035Z,12.13
2022-12-01T08:13:11.725Z,12.32
2022-12-01T08:15:43.368Z,12.32
2022-12-01T08:18:10.948Z,12.27
2022-12-01T08:20:38.521Z,11.07
2022-12-01T08:23:06.108Z,11.77
2022-12-01T08:25:33.702Z,12.18
2022-12-01T08:28:01.624Z,12.00
2022-12-01T08:30:29.319Z,12.60
2022-12-01T08:32:57.737Z,11.95
2022-12-01T08:35:25.551Z,11.73
2022-12-01T08:37:53.578Z,11.98
2022-12-01T08:40:21.820Z,11.77
2022-12-01T08:42:49.355Z,11.98
2022-12-01T08:45:16.898Z,11.48
2022-12-01T08:47:44.495Z,12.15
2022-12-01T08:50:12.398Z,12.57
2022-12-01T08:52:40.009Z,13.43
2022-12-01T08:55:08.027Z,12.75
2022-12-01T08:57:35.685Z,12.50
2022-12-01T09:00:03.429Z,11.75
2022-12-01T09:02:31.068Z,11.80
2022-12-01T09:04:58.712Z,11.25
2022-12-01T09:07:27.089Z,12.00
2022-12-01T09:09:54.773Z,10.90
2022-12-01T09:12:22.306Z,12.00
2022-12-01T09:14:49.971Z,11.25
2022-12-01T09:17:17.971Z,11.50
2022-12-01T09:19:45.591Z,12.48
2022-12-01T09:22:13.154Z,11.88
2022-12-01T09:24:40.691Z,12.20
2022-12-01T09:27:08.324Z,11.63
2022-12-01T09:29:35.850Z,12.63
2022-12-01T09:32:03.417Z,11.10
2022-12-01T09:34:30.925Z,11.25
2022-12-01T09:36:58.778Z,10.80
2022-12-01T09:39:26.471Z,10.80
2022-12-01T09:41:55.978Z,11.00
2022-12-01T09:44:36.116Z,10.45
2022-12-01T09:47:06.783Z,10.60
2022-12-01T09:49:54.378Z,10.57
2022-12-01T09:52:23.088Z,12.35
2022-12-01T09:54:50.895Z,9.70
2022-12-01T09:57:30.431Z,9.70
2022-12-01T09:59:59.028Z,9.95
2022-12-01T10:02:26.960Z,8.75
2022-12-01T10:04:55.852Z,8.25
2022-12-01T10:07:29.553Z,7.80
2022-12-01T10:09:59.243Z,7.50
2022-12-01T10:12:30.177Z,7.50
2022-12-01T10:15:26.951Z,8.25
2022-12-01T10:18:03.745Z,8.05
2022-12-01T10:20:47.135Z,7.32
2022-12-01T10:23:36.088Z,6.68
2022-12-01T10:26:08.783Z,7.82
2022-12-01T10:28:51.574Z,7.65
2022-12-01T10:31:21.129Z,6.65
2022-12-01T10:34:15.311Z,7.00
2022-12-01T10:36:43.280Z,7.35
2022-12-01T10:39:16.829Z,6.85
2022-12-01T10:41:44.796Z,6.68
2022-12-01T10:44:13.062Z,7.07
2022-12-01T10:46:44.228Z,7.75
2022-12-01T10:49:13.431Z,6.65
2022-12-01T10:51:59.234Z,7.45
2022-12-01T10:54:33.404Z,6.27
2022-12-01T10:57:01.487Z,7.00
2022-12-01T10:59:33.573Z,7.22
2022-12-01T11:02:02.546Z,6.93
2022-12-01T11:04:34.140Z,7.20
2022-12-01T11:07:02.190Z,6.57
2022-12-01T11:09:30.702Z,6.55
2022-12-01T11:12:02.487Z,5.85
2022-12-01T11:14:42.279Z,6.00
2022-12-01T11:17:17.117Z,5.82
2022-12-01T11:19:44.810Z,6.15
2022-12-01T11:22:26.024Z,6.10
2022-12-01T11:24:56.111Z,6.28
2022-12-01T11:27:28.317Z,6.13
2022-12-01T11:29:57.731Z,5.95
2022-12-01T11:32:27.029Z,6.75
2022-12-01T11:34:57.719Z,6.85
2022-12-01T11:37:28.496Z,6.78
2022-12-01T11:39:56.218Z,7.03
2022-12-01T11:42:26.302Z,6.30
2022-12-01T11:45:01.547Z,6.68
2022-12-01T11:47:29.385Z,7.28
2022-12-01T11:49:58.300Z,6.60
2022-12-01T11:52:29.845Z,6.00
2022-12-01T11:55:06.942Z,6.45
2022-12-01T11:57:39.006Z,6.40
2022-12-01T12:00:16.758Z,5.68
2022-12-01T12:02:50.451Z,5.68
2022-12-01T12:05:21.145Z,5.65
2022-12-01T12:07:48.719Z,5.93
2022-12-01T12:10:29.273Z,6.38
2022-12-01T12:13:15.509Z,6.15
2022-12-01T12:15:43.069Z,6.40
2022-12-01T12:18:29.298Z,5.70
2022-12-01T12:21:05.878Z,5.80
2022-12-01T12:24:01.898Z,6.47
2022-12-01T12:26:31.048Z,5.80
2022-12-01T12:28:59.500Z,5.88
2022-12-01T12:31:30.089Z,5.75
2022-12-01T12:34:12.419Z,5.40
2022-12-01T12:36:39.985Z,5.30
2022-12-01T12:39:15.081Z,5.70
2022-12-01T12:41:46.604Z,6.43
2022-12-01T12:44:21.390Z,6.55
2022-12-01T12:46:55.643Z,5.40
2022-12-01T12:49:29.264Z,6.05
2022-12-01T12:52:08.056Z,5.53
2022-12-01T12:54:51.593Z,6.00
2022-12-01T12:57:22.259Z,6.15
2022-12-01T12:59:54.282Z,7.50
2022-12-01T13:02:26.997Z,7.63
2022-12-01T13:05:03.795Z,6.72
2022-12-01T13:07:38.267Z,6.47
2022-12-01T13:10:11.145Z,6.72
2022-12-01T13:12:41.456Z,6.55
2022-12-01T13:15:15.332Z,6.75
2022-12-01T13:17:45.466Z,6.80
2022-12-01T13:20:15.221Z,6.60
2022-12-01T13:22:42.929Z,6.28
2022-12-01T13:25:13.920Z,6.25
2022-12-01T13:27:43.093Z,6.85
2022-12-01T13:30:24.801Z,6.40
2022-12-01T13:33:05.548Z,6.20
2022-12-01T13:35:37.367Z,6.20
2022-12-01T13:38:26.967Z,5.35
2022-12-01T13:41:10.925Z,5.78
2022-12-01T13:43:46.591Z,5.43
2022-12-01T13:46:25.099Z,6.00
2022-12-01T13:48:54.258Z,5.70
2022-12-01T13:51:21.893Z,6.20
2022-12-01T13:53:58.417Z,5.72
2022-12-01T13:56:27.974Z,6.75
2022-12-01T13:58:55.993Z,5.72
2022-12-01T14:01:23.628Z,5.38
2022-12-01T14:04:03.724Z,5.20
2022-12-01T14:06:31.250Z,5.25
2022-12-01T14:09:00.594Z,5.28
2022-12-01T14:11:29.245Z,5.78
2022-12-01T14:13:59.605Z,6.07
2022-12-01T14:16:45.905Z,5.10
2022-12-01T14:19:33.795Z,4.75
2022-12-01T14:22:02.352Z,4.85
2022-12-01T14:24:42.070Z,5.53
2022-12-01T14:27:11.811Z,5.15
2022-12-01T14:29:42.877Z,4.90
2022-12-01T14:32:10.399Z,5.55
2022-12-01T14:34:38.942Z,5.80
2022-12-01T14:37:06.418Z,6.13
2022-12-01T14:39:42.331Z,6.38
2022-12-01T14:42:43.880Z,6.07
2022-12-01T14:45:14.112Z,6.32
2022-12-01T14:47:44.294Z,6.50
2022-12-01T14:50:24.761Z,6.60
2022-12-01T14:52:58.192Z,6.47
2022-12-01T14:55:27.689Z,6.88
2022-12-01T14:58:04.976Z,6.78
2022-12-01T15:00:35.162Z,5.82
2022-12-01T15:03:05.536Z,7.10
2022-12-01T15:05:38.298Z,6.50
2022-12-01T15:08:41.036Z,6.65
2022-12-01T15:11:10.872Z,6.45
2022-12-01T15:13:46.145Z,7.28
2022-12-01T15:16:18.670Z,7.70
2022-12-01T15:18:47.687Z,7.10
2022-12-01T15:21:19.428Z,7.35
2022-12-01T15:24:02.065Z,7.93
2022-12-01T15:26:46.273Z,10.32
2022-12-01T15:29:19.190Z,12.02
2022-12-01T15:31:51.284Z,13.68
2022-12-01T15:34:24.403Z,13.65
2022-12-01T15:36:52.889Z,13.93
2022-12-01T15:39:22.366Z,12.77
2022-12-01T15:41:53.958Z,12.18
2022-12-01T15:44:23.377Z,11.85
2022-12-01T15:46:51.038Z,11.82
2022-12-01T15:49:20.515Z,11.77
2022-12-01T15:51:49.203Z,11.95
2022-12-01T15:54:19.427Z,12.65
2022-12-01T15:56:47.324Z,12.95
2022-12-01T15:59:14.821Z,13.90
2022-12-01T16:01:43.427Z,15.70
2022-12-01T16:04:32.172Z,17.17
2022-12-01T16:06:59.781Z,16.73
2022-12-01T16:09:33.086Z,16.42
2022-12-01T16:12:05.278Z,16.45
2022-12-01T16:14:32.882Z,16.10
2022-12-01T16:17:00.869Z,15.10
2022-12-01T16:19:32.506Z,15.07
2022-12-01T16:22:12.334Z,14.52
2022-12-01T16:24:47.541Z,15.60
2022-12-01T16:27:28.839Z,16.40
2022-12-01T16:29:59.371Z,17.42
2022-12-01T16:32:38.212Z,17.83
2022-12-01T16:35:06.873Z,17.65
2022-12-01T16:37:34.425Z,17.90
2022-12-01T16:40:02.147Z,17.45
2022-12-01T16:42:29.706Z,18.35
2022-12-01T16:44:57.423Z,18.67
2022-12-01T16:47:25.834Z,19.13
2022-12-01T16:49:53.658Z,19.02
2022-12-01T16:52:43.833Z,18.00
2022-12-01T16:55:27.753Z,17.35
2022-12-01T16:57:55.549Z,15.77
2022-12-01T17:00:23.910Z,16.40
2022-12-01T17:02:52.681Z,16.20
2022-12-01T17:05:20.383Z,17.77
2022-12-01T17:07:48.334Z,15.85
2022-12-01T17:10:16.404Z,17.15
2022-12-01T17:12:44.237Z,17.42
2022-12-01T17:15:11.946Z,17.75
2022-12-01T17:17:39.640Z,19.35
2022-12-01T17:20:08.038Z,17.77
2022-12-01T17:22:35.771Z,17.50
2022-12-01T17:25:03.844Z,17.65
2022-12-01T17:27:32.006Z,18.25
2022-12-01T17:29:59.800Z,17.95
2022-12-01T17:32:27.844Z,17.42
2022-12-01T17:34:55.722Z,19.60
2022-12-01T17:37:23.304Z,20.80
2022-12-01T17:39:51.033Z,19.70
2022-12-01T17:42:18.553Z,19.25
2022-12-01T17:44:46.574Z,19.83
2022-12-01T17:47:14.382Z,19.55
2022-12-01T17:49:41.967Z,19.20
2022-12-01T17:52:09.663Z,18.90
2022-12-01T17:54:37.522Z,17.42
2022-12-01T17:57:06.602Z,16.17
2022-12-01T17:59:34.894Z,16.75
2022-12-01T18:02:02.565Z,14.55
2022-12-01T18:04:31.167Z,17.05
2022-12-01T18:06:59.124Z,23.23
2022-12-01T18:09:27.110Z,26.35
2022-12-01T18:11:56.292Z,24.20
2022-12-01T18:14:24.748Z,25.45
2022-12-01T18:16:52.672Z,26.15
2022-12-01T18:19:20.576Z,24.90
2022-12-01T18:21:48.181Z,31.35
2022-12-01T18:24:15.714Z,41.00
2022-12-01T18:26:43.360Z,39.45
2022-12-01T18:29:15.969Z,30.00
2022-12-01T18:31:43.837Z,25.20
2022-12-01T18:34:12.184Z,26.30
2022-12-01T18:36:40.927Z,24.33
2022-12-01T18:39:09.313Z,21.15
2022-12-01T18:41:37.440Z,21.10
2022-12-01T18:44:05.117Z,21.25
2022-12-01T18:46:33.242Z,21.30
2022-12-01T18:49:01.922Z,20.38
2022-12-01T18:51:30.637Z,19.73
2022-12-01T18:53:59.271Z,21.67
2022-12-01T18:56:27.049Z,20.92
2022-12-01T18:58:58.725Z,20.65
2022-12-01T19:01:28.042Z,20.85
2022-12-01T19:03:56.982Z,20.42
2022-12-01T19:06:26.128Z,19.60
2022-12-01T19:08:53.752Z,20.15
2022-12-01T19:11:21.405Z,19.45
2022-12-01T19:13:49.310Z,18.73
2022-12-01T19:16:18.819Z,18.27
2022-12-01T19:18:46.655Z,17.92
2022-12-01T19:21:15.928Z,18.67
2022-12-01T19:23:45.395Z,18.85
2022-12-01T19:26:14.475Z,18.63
2022-12-01T19:28:45.214Z,18.50
2022-12-01T19:31:15.533Z,17.45
2022-12-01T19:33:43.162Z,17.17
2022-12-01T19:36:13.307Z,16.70
2022-12-01T19:38:41.764Z,16.65
2022-12-01T19:41:09.609Z,11.27
2022-12-01T19:43:37.750Z,12.10
2022-12-01T19:46:13.337Z,12.85
2022-12-01T19:48:41.355Z,10.43
2022-12-01T19:51:16.438Z,9.57
2022-12-01T19:53:44.010Z,9.95
2022-12-01T19:56:11.614Z,9.98
2022-12-01T19:58:39.187Z,9.27
2022-12-01T20:01:08.398Z,9.73
2022-12-01T20:03:36.217Z,9.90
2022-12-01T20:06:08.459Z,10.45
2022-12-01T20:08:36.494Z,11.07
2022-12-01T20:11:04.834Z,12.68
2022-12-01T20:13:37.313Z,10.57
2022-12-01T20:16:06.617Z,8.70
2022-12-01T20:18:34.541Z,8.77
2022-12-01T20:21:16.400Z,9.13
2022-12-01T20:23:44.907Z,10.05
2022-12-01T20:26:12.645Z,10.48
2022-12-01T20:28:40.950Z,10.43
2022-12-01T20:31:10.278Z,8.23
2022-12-01T20:33:38.319Z,8.68
2022-12-01T20:36:06.253Z,8.80
2022-12-01T20:38:33.932Z,8.75
2022-12-01T20:41:01.600Z,8.43
2022-12-01T20:43:54.268Z,8.40
2022-12-01T20:46:21.927Z,7.93
2022-12-01T20:48:49.532Z,8.48
2022-12-01T20:51:17.128Z,8.35
2022-12-01T20:54:05.528Z,8.30
2022-12-01T20:56:32.653Z,8.73
2022-12-01T20:59:00.734Z,11.60
2022-12-01T21:01:28.417Z,14.27
2022-12-01T21:03:56.215Z,16.50
2022-12-01T21:06:23.885Z,29.55
2022-12-01T21:08:51.862Z,19.27
2022-12-01T21:11:41.292Z,17.38
2022-12-01T21:14:30.920Z,18.00
2022-12-01T21:17:03.263Z,19.02
2022-12-01T21:19:46.098Z,17.55
2022-12-01T21:22:14.628Z,17.25
2022-12-01T21:24:47.588Z,17.35
2022-12-01T21:27:16.567Z,17.25
2022-12-01T21:29:54.329Z,17.55
2022-12-01T21:32:34.663Z,24.63
2022-12-01T21:35:08.563Z,18.35
2022-12-01T21:37:37.536Z,34.83
2022-12-01T21:40:14.539Z,36.17
2022-12-01T21:42:45.487Z,21.92
2022-12-01T21:45:17.640Z,55.03
2022-12-01T21:47:45.907Z,54.67
2022-12-01T21:50:19.860Z,34.92
2022-12-01T21:52:49.294Z,27.27
2022-12-01T21:55:17.335Z,18.02
2022-12-01T21:57:52.325Z,15.98
2022-12-01T22:00:23.528Z,13.25
2022-12-01T22:02:53.056Z,12.77
2022-12-01T22:05:32.063Z,12.73
2022-12-01T22:08:01.343Z,12.80
2022-12-01T22:10:50.874Z,12.65
2022-12-01T22:13:21.789Z,12.85
2022-12-01T22:15:49.371Z,11.32
2022-12-01T22:18:24.420Z,12.15
2022-12-01T22:20:52.047Z,32.05
2022-12-01T22:23:20.722Z,13.88
2022-12-01T22:25:48.480Z,8.15
2022-12-01T22:28:18.873Z,13.88
2022-12-01T22:30:46.633Z,22.92
2022-12-01T22:33:22.153Z,8.32
2022-12-01T22:35:53.754Z,7.10
2022-12-01T22:38:37.337Z,7.30
2022-12-01T22:41:05.217Z,7.50
2022-12-01T22:43:43.035Z,7.75
2022-12-01T22:49:32.530Z,7.72
2022-12-01T22:52:13.747Z,10.93
2022-12-01T22:58:32.430Z,7.75
2022-12-01T23:01:08.667Z,7.43
2022-12-01T23:03:36.524Z,8.18
2022-12-01T23:06:23.988Z,7.35
2022-12-01T23:08:51.518Z,11.05
2022-12-01T23:11:19.057Z,12.52
2022-12-01T23:13:46.624Z,13.82
2022-12-01T23:16:14.182Z,14.43
2022-12-01T23:18:42.062Z,14.52
2022-12-01T23:21:09.861Z,17.50
2022-12-01T23:23:37.964Z,16.02
2022-12-01T23:26:07.400Z,15.30
2022-12-01T23:28:41.361Z,16.48
2022-12-01T23:31:09.570Z,16.58
2022-12-01T23:33:37.359Z,17.08
2022-12-01T23:36:13.042Z,18.77
2022-12-01T23:38:42.260Z,17.67
2022-12-01T23:41:25.519Z,17.27
2022-12-01T23:43:54.762Z,17.60
2022-12-01T23:46:23.762Z,17.48
2022-12-01T23:48:52.703Z,14.27
2022-12-01T23:51:22.179Z,15.35
2022-12-01T23:53:49.824Z,13.13
2022-12-01T23:56:19.786Z,11.32
2022-12-01T23:58:47.699Z,11.77
